sensor_id;sensor_type;location;lat;lon;timestamp;pressure;altitude;pressure_sealevel;temperature;humidity
71857;BME280;63344;46.980;28.882;2023-05-14T00:02:01;101500.25;;;9.87;73.86
71857;BME280;63344;46.980;28.882;2023-05-14T00:04:29;101499.44;;;9.82;73.78
71857;BME280;63344;46.980;28.882;2023-05-14T00:06:56;101505.72;;;9.79;73.81
71857;BME280;63344;46.980;28.882;2023-05-14T00:09:24;101505.75;;;9.76;73.68
71857;BME280;63344;46.980;28.882;2023-05-14T00:11:51;101505.03;;;9.69;73.72
71857;BME280;63344;46.980;28.882;2023-05-14T00:14:19;101505.19;;;9.62;73.92
71857;BME280;63344;46.980;28.882;2023-05-14T00:16:47;101513.22;;;9.59;74.03
71857;BME280;63344;46.980;28.882;2023-05-14T00:19:14;101515.94;;;9.54;74.42
71857;BME280;63344;46.980;28.882;2023-05-14T00:21:41;101507.22;;;9.49;74.50
71857;BME280;63344;46.980;28.882;2023-05-14T00:24:08;101509.06;;;9.45;74.90
71857;BME280;63344;46.980;28.882;2023-05-14T00:26:36;101506.53;;;9.39;75.08
71857;BME280;63344;46.980;28.882;2023-05-14T00:29:03;101504.84;;;9.35;74.95
71857;BME280;63344;46.980;28.882;2023-05-14T00:31:30;101502.31;;;9.29;75.06
71857;BME280;63344;46.980;28.882;2023-05-14T00:33:58;101506.78;;;9.25;75.61
71857;BME280;63344;46.980;28.882;2023-05-14T00:36:25;101504.22;;;9.21;75.54
71857;BME280;63344;46.980;28.882;2023-05-14T00:38:52;101503.41;;;9.17;75.63
71857;BME280;63344;46.980;28.882;2023-05-14T00:41:19;101503.44;;;9.14;75.63
71857;BME280;63344;46.980;28.882;2023-05-14T00:43:47;101502.63;;;9.10;75.89
71857;BME280;63344;46.980;28.882;2023-05-14T00:46:15;101504.50;;;9.07;75.79
71857;BME280;63344;46.980;28.882;2023-05-14T00:48:45;101510.75;;;9.01;75.90
71857;BME280;63344;46.980;28.882;2023-05-14T00:51:17;101506.44;;;8.95;75.75
71857;BME280;63344;46.980;28.882;2023-05-14T00:53:46;101510.06;;;8.90;76.27
71857;BME280;63344;46.980;28.882;2023-05-14T00:56:14;101505.69;;;8.89;76.32
71857;BME280;63344;46.980;28.882;2023-05-14T00:58:42;101499.59;;;8.84;76.26
71857;BME280;63344;46.980;28.882;2023-05-14T01:01:09;101503.16;;;8.83;76.29
71857;BME280;63344;46.980;28.882;2023-05-14T01:03:37;101501.44;;;8.78;76.55
71857;BME280;63344;46.980;28.882;2023-05-14T01:11:51;101498.94;;;8.69;76.95
71857;BME280;63344;46.980;28.882;2023-05-14T01:14:27;101501.63;;;8.68;77.17
71857;BME280;63344;46.980;28.882;2023-05-14T01:17:01;101500.75;;;8.67;77.37
71857;BME280;63344;46.980;28.882;2023-05-14T01:22:00;101500.75;;;8.67;77.49
71857;BME280;63344;46.980;28.882;2023-05-14T01:24:27;101507.00;;;8.65;77.69
71857;BME280;63344;46.980;28.882;2023-05-14T01:27:00;101499.94;;;8.62;77.58
71857;BME280;63344;46.980;28.882;2023-05-14T01:29:30;101496.50;;;8.57;77.89
71857;BME280;63344;46.980;28.882;2023-05-14T01:31:59;101507.03;;;8.62;78.04
71857;BME280;63344;46.980;28.882;2023-05-14T01:34:28;101503.59;;;8.55;78.06
71857;BME280;63344;46.980;28.882;2023-05-14T01:36:57;101503.72;;;8.47;78.15
71857;BME280;63344;46.980;28.882;2023-05-14T01:39:26;101503.78;;;8.43;78.34
71857;BME280;63344;46.980;28.882;2023-05-14T01:41:54;101506.50;;;8.36;78.22
71857;BME280;63344;46.980;28.882;2023-05-14T01:44:22;101503.13;;;8.27;78.33
71857;BME280;63344;46.980;28.882;2023-05-14T01:46:50;101508.47;;;8.22;78.28
71857;BME280;63344;46.980;28.882;2023-05-14T01:49:17;101512.06;;;8.18;78.50
71857;BME280;63344;46.980;28.882;2023-05-14T01:51:46;101498.84;;;8.16;79.11
71857;BME280;63344;46.980;28.882;2023-05-14T01:54:14;101498.91;;;8.13;79.17
71857;BME280;63344;46.980;28.882;2023-05-14T01:56:41;101508.66;;;8.11;79.64
71857;BME280;63344;46.980;28.882;2023-05-14T01:59:08;101511.38;;;8.07;79.78
71857;BME280;63344;46.980;28.882;2023-05-14T02:01:36;101507.03;;;8.01;79.64
71857;BME280;63344;46.980;28.882;2023-05-14T02:04:09;101507.94;;;7.98;79.52
71857;BME280;63344;46.980;28.882;2023-05-14T02:06:38;101502.69;;;7.97;79.83
71857;BME280;63344;46.980;28.882;2023-05-14T02:09:05;101502.69;;;7.95;79.81
71857;BME280;63344;46.980;28.882;2023-05-14T02:11:33;101504.50;;;7.92;79.61
71857;BME280;63344;46.980;28.882;2023-05-14T02:14:00;101501.91;;;7.89;79.87
71857;BME280;63344;46.980;28.882;2023-05-14T02:16:27;101507.22;;;7.87;79.90
71857;BME280;63344;46.980;28.882;2023-05-14T02:18:55;101503.72;;;7.84;79.90
71857;BME280;63344;46.980;28.882;2023-05-14T02:21:38;101499.38;;;7.81;79.85
71857;BME280;63344;46.980;28.882;2023-05-14T02:24:16;101502.09;;;7.75;80.04
71857;BME280;63344;46.980;28.882;2023-05-14T02:26:43;101503.88;;;7.73;80.20
71857;BME280;63344;46.980;28.882;2023-05-14T02:29:11;101503.91;;;7.70;80.21
71857;BME280;63344;46.980;28.882;2023-05-14T02:31:40;101508.34;;;7.68;80.17
71857;BME280;63344;46.980;28.882;2023-05-14T02:34:07;101508.41;;;7.62;80.35
71857;BME280;63344;46.980;28.882;2023-05-14T02:36:35;101507.56;;;7.60;80.67
71857;BME280;63344;46.980;28.882;2023-05-14T02:39:02;101504.06;;;7.59;80.96
71857;BME280;63344;46.980;28.882;2023-05-14T02:41:37;101513.78;;;7.57;80.88
71857;BME280;63344;46.980;28.882;2023-05-14T02:44:04;101512.00;;;7.54;81.14
71857;BME280;63344;46.980;28.882;2023-05-14T02:46:31;101512.06;;;7.53;81.36
71857;BME280;63344;46.980;28.882;2023-05-14T02:48:59;101506.72;;;7.54;81.52
71857;BME280;63344;46.980;28.882;2023-05-14T02:51:26;101512.00;;;7.57;81.79
71857;BME280;63344;46.980;28.882;2023-05-14T02:53:55;101516.44;;;7.55;81.82
71857;BME280;63344;46.980;28.882;2023-05-14T02:56:22;101519.09;;;7.52;81.83
71857;BME280;63344;46.980;28.882;2023-05-14T02:58:49;101512.00;;;7.54;81.95
71857;BME280;63344;46.980;28.882;2023-05-14T03:01:17;101515.50;;;7.60;82.22
71857;BME280;63344;46.980;28.882;2023-05-14T03:03:45;101522.44;;;7.67;82.27
71857;BME280;63344;46.980;28.882;2023-05-14T03:06:13;101511.75;;;7.76;82.98
71857;BME280;63344;46.980;28.882;2023-05-14T03:08:40;101516.03;;;7.85;82.51
71857;BME280;63344;46.980;28.882;2023-05-14T03:11:09;101524.66;;;8.01;83.15
71857;BME280;63344;46.980;28.882;2023-05-14T03:13:37;101521.78;;;8.19;83.59
71857;BME280;63344;46.980;28.882;2023-05-14T03:16:04;101522.34;;;8.41;84.22
71857;BME280;63344;46.980;28.882;2023-05-14T03:18:31;101517.63;;;8.62;84.38
71857;BME280;63344;46.980;28.882;2023-05-14T03:21:01;101519.03;;;8.83;85.04
71857;BME280;63344;46.980;28.882;2023-05-14T03:23:31;101521.25;;;9.07;84.38
71857;BME280;63344;46.980;28.882;2023-05-14T03:26:01;101524.31;;;9.32;83.74
71857;BME280;63344;46.980;28.882;2023-05-14T03:28:28;101524.72;;;9.57;82.75
71857;BME280;63344;46.980;28.882;2023-05-14T03:30:56;101525.09;;;9.83;81.64
71857;BME280;63344;46.980;28.882;2023-05-14T03:33:23;101529.00;;;10.07;81.02
71857;BME280;63344;46.980;28.882;2023-05-14T03:35:52;101530.25;;;10.29;80.88
71857;BME280;63344;46.980;28.882;2023-05-14T03:38:19;101526.13;;;10.56;78.81
71857;BME280;63344;46.980;28.882;2023-05-14T03:40:49;101527.84;;;10.93;77.28
71857;BME280;63344;46.980;28.882;2023-05-14T03:43:16;101542.25;;;11.19;77.07
71857;BME280;63344;46.980;28.882;2023-05-14T03:45:44;101530.03;;;11.45;76.94
71857;BME280;63344;46.980;28.882;2023-05-14T03:48:11;101532.16;;;11.63;76.70
71857;BME280;63344;46.980;28.882;2023-05-14T03:50:39;101533.13;;;11.92;76.86
71857;BME280;63344;46.980;28.882;2023-05-14T03:53:09;101537.34;;;12.29;76.14
71857;BME280;63344;46.980;28.882;2023-05-14T03:55:40;101539.78;;;12.63;75.20
71857;BME280;63344;46.980;28.882;2023-05-14T03:58:08;101535.19;;;12.95;72.41
71857;BME280;63344;46.980;28.882;2023-05-14T04:00:42;101536.09;;;13.21;70.03
71857;BME280;63344;46.980;28.882;2023-05-14T04:03:12;101536.41;;;13.38;67.11
71857;BME280;63344;46.980;28.882;2023-05-14T04:05:40;101524.53;;;13.47;65.78
71857;BME280;63344;46.980;28.882;2023-05-14T04:08:07;101532.84;;;13.63;65.53
71857;BME280;63344;46.980;28.882;2023-05-14T04:10:34;101531.38;;;13.78;64.80
71857;BME280;63344;46.980;28.882;2023-05-14T04:13:01;101532.78;;;13.88;64.21
71857;BME280;63344;46.980;28.882;2023-05-14T04:15:31;101538.41;;;14.04;63.78
71857;BME280;63344;46.980;28.882;2023-05-14T04:18:07;101533.28;;;14.21;63.13
71857;BME280;63344;46.980;28.882;2023-05-14T04:20:35;101540.41;;;14.44;62.57
71857;BME280;63344;46.980;28.882;2023-05-14T04:23:03;101533.31;;;14.65;61.48
71857;BME280;63344;46.980;28.882;2023-05-14T04:25:31;101534.09;;;14.89;61.41
71857;BME280;63344;46.980;28.882;2023-05-14T04:28:00;101532.97;;;15.16;60.25
71857;BME280;63344;46.980;28.882;2023-05-14T04:30:29;101543.44;;;15.42;59.75
71857;BME280;63344;46.980;28.882;2023-05-14T04:32:56;101538.63;;;15.69;59.31
71857;BME280;63344;46.980;28.882;2023-05-14T04:35:24;101536.44;;;15.79;57.25
71857;BME280;63344;46.980;28.882;2023-05-14T04:37:51;101546.81;;;15.87;57.24
71857;BME280;63344;46.980;28.882;2023-05-14T04:40:19;101545.66;;;16.11;57.01
71857;BME280;63344;46.980;28.882;2023-05-14T04:42:46;101545.34;;;16.37;55.89
71857;BME280;63344;46.980;28.882;2023-05-14T04:45:13;101543.06;;;16.65;57.49
71857;BME280;63344;46.980;28.882;2023-05-14T04:48:06;101537.78;;;17.00;56.09
71857;BME280;63344;46.980;28.882;2023-05-14T04:50:37;101541.22;;;17.37;55.08
71857;BME280;63344;46.980;28.882;2023-05-14T04:53:04;101534.31;;;17.66;53.76
71857;BME280;63344;46.980;28.882;2023-05-14T04:55:32;101532.22;;;17.89;54.65
71857;BME280;63344;46.980;28.882;2023-05-14T04:58:00;101543.34;;;18.15;54.77
71857;BME280;63344;46.980;28.882;2023-05-14T05:00:29;101537.03;;;18.47;54.06
71857;BME280;63344;46.980;28.882;2023-05-14T05:03:12;101542.06;;;18.85;51.98
71857;BME280;63344;46.980;28.882;2023-05-14T05:05:55;101533.50;;;19.23;50.54
71857;BME280;63344;46.980;28.882;2023-05-14T05:08:25;101539.13;;;19.63;49.70
71857;BME280;63344;46.980;28.882;2023-05-14T05:10:56;101542.53;;;19.96;48.01
71857;BME280;63344;46.980;28.882;2023-05-14T05:13:46;101542.47;;;20.24;47.17
71857;BME280;63344;46.980;28.882;2023-05-14T05:16:28;101547.59;;;20.56;47.59
71857;BME280;63344;46.980;28.882;2023-05-14T05:18:58;101551.59;;;20.78;46.71
71857;BME280;63344;46.980;28.882;2023-05-14T05:21:27;101548.22;;;21.01;45.30
71857;BME280;63344;46.980;28.882;2023-05-14T05:23:54;101552.59;;;21.29;44.18
71857;BME280;63344;46.980;28.882;2023-05-14T05:26:25;101546.44;;;21.40;43.04
71857;BME280;63344;46.980;28.882;2023-05-14T05:28:55;101548.53;;;21.50;42.56
71857;BME280;63344;46.980;28.882;2023-05-14T05:31:24;101547.03;;;21.45;41.69
71857;BME280;63344;46.980;28.882;2023-05-14T05:33:51;101544.16;;;21.34;42.27
71857;BME280;63344;46.980;28.882;2023-05-14T05:36:19;101547.19;;;21.42;42.12
71857;BME280;63344;46.980;28.882;2023-05-14T05:38:47;101542.47;;;21.46;41.97
71857;BME280;63344;46.980;28.882;2023-05-14T05:41:24;101537.03;;;21.33;42.32
71857;BME280;63344;46.980;28.882;2023-05-14T05:44:12;101532.56;;;21.06;41.91
71857;BME280;63344;46.980;28.882;2023-05-14T05:47:29;101548.16;;;20.76;41.80
71857;BME280;63344;46.980;28.882;2023-05-14T05:50:25;101550.94;;;20.33;42.28
71857;BME280;63344;46.980;28.882;2023-05-14T05:53:09;101560.25;;;20.00;42.37
71857;BME280;63344;46.980;28.882;2023-05-14T05:55:40;101553.03;;;19.72;42.91
71857;BME280;63344;46.980;28.882;2023-05-14T05:58:14;101551.53;;;19.52;43.59
71857;BME280;63344;46.980;28.882;2023-05-14T06:00:48;101550.63;;;19.37;44.50
71857;BME280;63344;46.980;28.882;2023-05-14T06:03:17;101553.78;;;19.29;44.50
71857;BME280;63344;46.980;28.882;2023-05-14T06:05:44;101548.28;;;19.16;43.63
71857;BME280;63344;46.980;28.882;2023-05-14T06:08:17;101547.66;;;18.97;43.48
71857;BME280;63344;46.980;28.882;2023-05-14T06:10:45;101549.75;;;18.76;43.70
71857;BME280;63344;46.980;28.882;2023-05-14T06:13:31;101543.44;;;18.61;43.57
71857;BME280;63344;46.980;28.882;2023-05-14T06:16:14;101546.47;;;18.55;43.73
71857;BME280;63344;46.980;28.882;2023-05-14T06:19:13;101545.09;;;18.47;44.21
71857;BME280;63344;46.980;28.882;2023-05-14T06:21:46;101543.72;;;18.40;44.25
71857;BME280;63344;46.980;28.882;2023-05-14T06:24:14;101537.47;;;18.40;43.99
71857;BME280;63344;46.980;28.882;2023-05-14T06:26:44;101534.00;;;18.38;44.11
71857;BME280;63344;46.980;28.882;2023-05-14T06:29:12;101534.16;;;18.35;43.21
71857;BME280;63344;46.980;28.882;2023-05-14T06:32:09;101526.19;;;18.33;43.18
71857;BME280;63344;46.980;28.882;2023-05-14T06:34:36;101527.94;;;18.34;43.56
71857;BME280;63344;46.980;28.882;2023-05-14T06:37:08;101522.53;;;18.34;43.20
71857;BME280;63344;46.980;28.882;2023-05-14T06:39:50;101526.09;;;18.35;42.70
71857;BME280;63344;46.980;28.882;2023-05-14T06:42:18;101520.47;;;18.39;43.27
71857;BME280;63344;46.980;28.882;2023-05-14T06:44:45;101519.22;;;18.45;43.74
71857;BME280;63344;46.980;28.882;2023-05-14T06:47:14;101519.06;;;18.48;43.02
71857;BME280;63344;46.980;28.882;2023-05-14T06:49:56;101520.69;;;18.50;42.34
71857;BME280;63344;46.980;28.882;2023-05-14T06:52:25;101515.41;;;18.49;42.89
71857;BME280;63344;46.980;28.882;2023-05-14T06:54:52;101516.78;;;18.56;43.28
71857;BME280;63344;46.980;28.882;2023-05-14T06:57:20;101517.22;;;18.64;42.07
71857;BME280;63344;46.980;28.882;2023-05-14T06:59:47;101517.81;;;18.69;42.29
71857;BME280;63344;46.980;28.882;2023-05-14T07:02:23;101510.53;;;18.71;41.98
71857;BME280;63344;46.980;28.882;2023-05-14T07:04:51;101515.72;;;18.75;41.92
71857;BME280;63344;46.980;28.882;2023-05-14T07:07:18;101502.81;;;18.81;41.64
71857;BME280;63344;46.980;28.882;2023-05-14T07:10:00;101516.94;;;18.85;41.71
71857;BME280;63344;46.980;28.882;2023-05-14T07:12:31;101503.88;;;18.93;42.37
71857;BME280;63344;46.980;28.882;2023-05-14T07:14:59;101504.19;;;19.03;41.76
71857;BME280;63344;46.980;28.882;2023-05-14T07:17:28;101506.25;;;19.14;42.21
71857;BME280;63344;46.980;28.882;2023-05-14T07:19:55;101499.34;;;19.24;42.57
71857;BME280;63344;46.980;28.882;2023-05-14T07:22:23;101495.03;;;19.36;42.19
71857;BME280;63344;46.980;28.882;2023-05-14T07:25:07;101508.69;;;19.47;41.33
71857;BME280;63344;46.980;28.882;2023-05-14T07:27:38;101494.75;;;19.55;41.51
71857;BME280;63344;46.980;28.882;2023-05-14T07:30:19;101495.91;;;19.65;41.04
71857;BME280;63344;46.980;28.882;2023-05-14T07:32:46;101496.97;;;19.77;40.28
71857;BME280;63344;46.980;28.882;2023-05-14T07:35:17;101485.53;;;19.87;40.83
71857;BME280;63344;46.980;28.882;2023-05-14T07:37:48;101494.84;;;19.96;39.86
71857;BME280;63344;46.980;28.882;2023-05-14T07:40:15;101492.63;;;20.03;39.41
71857;BME280;63344;46.980;28.882;2023-05-14T07:42:43;101489.41;;;20.10;38.53
71857;BME280;63344;46.980;28.882;2023-05-14T07:45:10;101490.84;;;20.16;38.33
71857;BME280;63344;46.980;28.882;2023-05-14T07:47:45;101489.59;;;20.22;38.14
71857;BME280;63344;46.980;28.882;2023-05-14T07:50:17;101494.28;;;20.33;38.15
71857;BME280;63344;46.980;28.882;2023-05-14T07:52:46;101483.75;;;20.42;38.31
71857;BME280;63344;46.980;28.882;2023-05-14T07:55:17;101475.72;;;20.55;38.85
71857;BME280;63344;46.980;28.882;2023-05-14T07:57:47;101476.84;;;20.65;37.27
71857;BME280;63344;46.980;28.882;2023-05-14T08:00:14;101478.38;;;20.69;36.41
71857;BME280;63344;46.980;28.882;2023-05-14T08:02:49;101479.66;;;20.77;36.34
71857;BME280;63344;46.980;28.882;2023-05-14T08:05:17;101477.09;;;20.88;36.32
71857;BME280;63344;46.980;28.882;2023-05-14T08:07:46;101479.28;;;21.08;36.42
71857;BME280;63344;46.980;28.882;2023-05-14T08:10:13;101481.34;;;21.31;36.29
71857;BME280;63344;46.980;28.882;2023-05-14T08:12:40;101475.66;;;21.48;36.31
71857;BME280;63344;46.980;28.882;2023-05-14T08:15:08;101464.31;;;21.56;35.36
71857;BME280;63344;46.980;28.882;2023-05-14T08:17:39;101473.91;;;21.60;32.95
71857;BME280;63344;46.980;28.882;2023-05-14T08:20:12;101462.84;;;22.13;31.31
71857;BME280;63344;46.980;28.882;2023-05-14T08:22:40;101464.34;;;23.00;29.46
71857;BME280;63344;46.980;28.882;2023-05-14T08:25:08;101468.28;;;23.65;27.19
71857;BME280;63344;46.980;28.882;2023-05-14T08:27:37;101472.16;;;24.40;26.59
71857;BME280;63344;46.980;28.882;2023-05-14T08:30:05;101464.19;;;25.02;26.55
71857;BME280;63344;46.980;28.882;2023-05-14T08:32:32;101462.41;;;25.64;26.56
71857;BME280;63344;46.980;28.882;2023-05-14T08:35:01;101462.38;;;26.65;26.45
71857;BME280;63344;46.980;28.882;2023-05-14T08:37:28;101448.94;;;27.67;26.44
71857;BME280;63344;46.980;28.882;2023-05-14T08:39:56;101455.34;;;28.67;25.03
71857;BME280;63344;46.980;28.882;2023-05-14T08:42:23;101444.69;;;29.00;22.00
71857;BME280;63344;46.980;28.882;2023-05-14T08:45:02;101449.16;;;28.83;21.88
71857;BME280;63344;46.980;28.882;2023-05-14T08:47:30;101453.41;;;29.04;21.89
71857;BME280;63344;46.980;28.882;2023-05-14T08:50:02;101446.94;;;29.05;21.15
71857;BME280;63344;46.980;28.882;2023-05-14T08:52:31;101450.63;;;28.95;21.46
71857;BME280;63344;46.980;28.882;2023-05-14T08:55:04;101451.63;;;29.38;21.33
71857;BME280;63344;46.980;28.882;2023-05-14T08:57:39;101444.13;;;29.49;20.85
71857;BME280;63344;46.980;28.882;2023-05-14T09:00:07;101431.03;;;29.61;21.15
71857;BME280;63344;46.980;28.882;2023-05-14T09:02:39;101444.22;;;30.08;20.76
71857;BME280;63344;46.980;28.882;2023-05-14T09:05:08;101432.03;;;29.94;19.80
71857;BME280;63344;46.980;28.882;2023-05-14T09:07:44;101435.16;;;29.65;20.11
71857;BME280;63344;46.980;28.882;2023-05-14T09:10:14;101437.66;;;29.50;20.25
71857;BME280;63344;46.980;28.882;2023-05-14T09:12:43;101434.47;;;29.71;20.38
71857;BME280;63344;46.980;28.882;2023-05-14T09:15:10;101425.56;;;30.19;19.99
71857;BME280;63344;46.980;28.882;2023-05-14T09:17:42;101423.56;;;30.79;20.58
71857;BME280;63344;46.980;28.882;2023-05-14T09:20:13;101430.19;;;31.82;20.52
71857;BME280;63344;46.980;28.882;2023-05-14T09:22:44;101424.97;;;32.26;18.59
71857;BME280;63344;46.980;28.882;2023-05-14T09:25:26;101419.78;;;32.92;18.36
71857;BME280;63344;46.980;28.882;2023-05-14T09:27:57;101418.00;;;33.00;17.85
71857;BME280;63344;46.980;28.882;2023-05-14T09:30:30;101414.00;;;32.87;18.21
71857;BME280;63344;46.980;28.882;2023-05-14T09:32:59;101412.91;;;33.41;17.49
71857;BME280;63344;46.980;28.882;2023-05-14T09:35:27;101412.31;;;33.76;16.79
71857;BME280;63344;46.980;28.882;2023-05-14T09:37:56;101411.50;;;33.45;16.50
71857;BME280;63344;46.980;28.882;2023-05-14T09:40:25;101407.50;;;33.63;17.09
71857;BME280;63344;46.980;28.882;2023-05-14T09:42:56;101408.19;;;34.44;16.57
71857;BME280;63344;46.980;28.882;2023-05-14T09:45:28;101403.88;;;34.85;16.35
71857;BME280;63344;46.980;28.882;2023-05-14T09:48:00;101395.56;;;33.92;16.49
71857;BME280;63344;46.980;28.882;2023-05-14T09:50:42;101391.91;;;32.58;17.51
71857;BME280;63344;46.980;28.882;2023-05-14T09:53:27;101401.13;;;33.47;17.06
71857;BME280;63344;46.980;28.882;2023-05-14T09:56:21;101405.94;;;33.75;16.15
71857;BME280;63344;46.980;28.882;2023-05-14T09:59:19;101392.78;;;33.92;15.78
71857;BME280;63344;46.980;28.882;2023-05-14T10:02:26;101392.66;;;33.04;16.50
71857;BME280;63344;46.980;28.882;2023-05-14T10:04:59;101390.38;;;32.32;16.59
71857;BME280;63344;46.980;28.882;2023-05-14T10:07:32;101393.19;;;32.01;17.22
71857;BME280;63344;46.980;28.882;2023-05-14T10:10:02;101385.19;;;31.83;17.28
71857;BME280;63344;46.980;28.882;2023-05-14T10:12:38;101380.50;;;31.60;17.08
71857;BME280;63344;46.980;28.882;2023-05-14T10:15:32;101380.72;;;31.50;16.92
71857;BME280;63344;46.980;28.882;2023-05-14T10:18:06;101376.38;;;32.65;17.11
71857;BME280;63344;46.980;28.882;2023-05-14T10:21:13;101383.78;;;32.79;16.71
71857;BME280;63344;46.980;28.882;2023-05-14T10:23:58;101379.19;;;31.79;17.03
71857;BME280;63344;46.980;28.882;2023-05-14T10:32:28;101367.03;;;29.27;18.95
71857;BME280;63344;46.980;28.882;2023-05-14T10:35:18;101367.88;;;29.54;18.58
71857;BME280;63344;46.980;28.882;2023-05-14T10:41:18;101361.88;;;32.48;17.01
71857;BME280;63344;46.980;28.882;2023-05-14T10:43:48;101368.91;;;32.88;16.97
71857;BME280;63344;46.980;28.882;2023-05-14T10:46:19;101358.28;;;32.47;15.98
71857;BME280;63344;46.980;28.882;2023-05-14T10:49:26;101353.81;;;32.69;15.95
71857;BME280;63344;46.980;28.882;2023-05-14T10:52:11;101358.56;;;33.35;15.53
71857;BME280;63344;46.980;28.882;2023-05-14T10:54:51;101354.66;;;33.96;15.48
71857;BME280;63344;46.980;28.882;2023-05-14T10:57:22;101350.59;;;34.35;14.93
71857;BME280;63344;46.980;28.882;2023-05-14T10:59:58;101349.56;;;33.26;16.30
71857;BME280;63344;46.980;28.882;2023-05-14T11:02:32;101346.78;;;33.56;16.78
71857;BME280;63344;46.980;28.882;2023-05-14T11:05:05;101346.69;;;33.64;15.99
71857;BME280;63344;46.980;28.882;2023-05-14T11:07:35;101347.28;;;32.85;16.06
71857;BME280;63344;46.980;28.882;2023-05-14T11:10:06;101349.47;;;31.12;17.14
71857;BME280;63344;46.980;28.882;2023-05-14T11:12:38;101351.44;;;29.54;19.24
71857;BME280;63344;46.980;28.882;2023-05-14T11:15:09;101349.75;;;28.48;19.45
71857;BME280;63344;46.980;28.882;2023-05-14T11:17:39;101357.16;;;27.66;20.12
71857;BME280;63344;46.980;28.882;2023-05-14T11:20:08;101351.16;;;26.88;20.79
71857;BME280;63344;46.980;28.882;2023-05-14T11:22:57;101338.91;;;26.64;21.53
71857;BME280;63344;46.980;28.882;2023-05-14T11:25:24;101337.16;;;26.53;21.10
71857;BME280;63344;46.980;28.882;2023-05-14T11:27:52;101338.84;;;26.74;21.06
71857;BME280;63344;46.980;28.882;2023-05-14T11:30:26;101337.13;;;27.48;20.76
71857;BME280;63344;46.980;28.882;2023-05-14T11:32:55;101331.38;;;28.14;19.89
71857;BME280;63344;46.980;28.882;2023-05-14T11:35:30;101331.03;;;27.81;20.38
71857;BME280;63344;46.980;28.882;2023-05-14T11:38:01;101333.00;;;27.44;21.00
71857;BME280;63344;46.980;28.882;2023-05-14T11:40:53;101321.63;;;26.83;21.38
71857;BME280;63344;46.980;28.882;2023-05-14T11:43:35;101324.72;;;25.92;22.45
71857;BME280;63344;46.980;28.882;2023-05-14T11:46:05;101327.53;;;25.21;22.86
71857;BME280;63344;46.980;28.882;2023-05-14T11:48:34;101331.78;;;24.83;23.78
71857;BME280;63344;46.980;28.882;2023-05-14T11:51:03;101323.88;;;25.01;24.38
71857;BME280;63344;46.980;28.882;2023-05-14T11:53:31;101329.06;;;25.44;23.58
71857;BME280;63344;46.980;28.882;2023-05-14T11:56:03;101326.81;;;25.69;23.34
71857;BME280;63344;46.980;28.882;2023-05-14T11:58:37;101318.53;;;26.00;22.72
71857;BME280;63344;46.980;28.882;2023-05-14T12:01:12;101319.25;;;26.21;22.49
71857;BME280;63344;46.980;28.882;2023-05-14T12:03:43;101320.00;;;27.55;21.38
71857;BME280;63344;46.980;28.882;2023-05-14T12:06:12;101314.31;;;28.38;20.94
71857;BME280;63344;46.980;28.882;2023-05-14T12:08:51;101313.00;;;29.29;20.16
71857;BME280;63344;46.980;28.882;2023-05-14T12:11:20;101309.97;;;29.41;19.07
71857;BME280;63344;46.980;28.882;2023-05-14T12:13:48;101309.25;;;28.26;20.36
71857;BME280;63344;46.980;28.882;2023-05-14T12:16:15;101309.41;;;27.25;21.50
71857;BME280;63344;46.980;28.882;2023-05-14T12:18:45;101300.03;;;26.52;21.84
71857;BME280;63344;46.980;28.882;2023-05-14T12:21:12;101305.69;;;25.92;22.21
71857;BME280;63344;46.980;28.882;2023-05-14T12:23:41;101309.53;;;26.29;22.78
71857;BME280;63344;46.980;28.882;2023-05-14T12:26:08;101299.59;;;27.04;22.61
71857;BME280;63344;46.980;28.882;2023-05-14T12:28:38;101297.88;;;27.58;22.35
71857;BME280;63344;46.980;28.882;2023-05-14T12:31:09;101288.38;;;28.16;20.95
71857;BME280;63344;46.980;28.882;2023-05-14T12:33:37;101277.72;;;28.31;20.09
71857;BME280;63344;46.980;28.882;2023-05-14T12:36:04;101279.47;;;27.78;20.71
71857;BME280;63344;46.980;28.882;2023-05-14T12:39:06;101273.97;;;27.88;21.39
71857;BME280;63344;46.980;28.882;2023-05-14T12:41:36;101272.84;;;27.99;20.84
71857;BME280;63344;46.980;28.882;2023-05-14T12:44:03;101269.72;;;27.94;21.02
71857;BME280;63344;46.980;28.882;2023-05-14T12:46:32;101262.41;;;27.94;20.57
71857;BME280;63344;46.980;28.882;2023-05-14T12:49:15;101264.75;;;27.89;21.93
71857;BME280;63344;46.980;28.882;2023-05-14T12:51:49;101272.59;;;27.56;21.00
71857;BME280;63344;46.980;28.882;2023-05-14T12:55:17;101263.75;;;26.42;21.95
71857;BME280;63344;46.980;28.882;2023-05-14T12:57:48;101249.75;;;26.27;22.15
71857;BME280;63344;46.980;28.882;2023-05-14T13:00:16;101256.75;;;26.20;22.64
71857;BME280;63344;46.980;28.882;2023-05-14T13:02:45;101249.59;;;25.90;22.94
71857;BME280;63344;46.980;28.882;2023-05-14T13:05:13;101253.19;;;25.61;22.80
71857;BME280;63344;46.980;28.882;2023-05-14T13:07:43;101248.03;;;25.58;23.47
71857;BME280;63344;46.980;28.882;2023-05-14T13:10:12;101255.44;;;25.27;22.98
71857;BME280;63344;46.980;28.882;2023-05-14T13:12:42;101244.06;;;25.12;23.49
71857;BME280;63344;46.980;28.882;2023-05-14T13:15:10;101251.13;;;24.83;23.76
71857;BME280;63344;46.980;28.882;2023-05-14T13:17:38;101241.94;;;24.75;24.21
71857;BME280;63344;46.980;28.882;2023-05-14T13:20:12;101231.84;;;24.87;24.52
71857;BME280;63344;46.980;28.882;2023-05-14T13:22:43;101234.91;;;25.13;24.24
71857;BME280;63344;46.980;28.882;2023-05-14T13:25:12;101227.94;;;25.30;24.62